sensor_id;sensor_type;location;lat;lon;timestamp;P1;durP1;ratioP1;P2;durP2;ratioP2
48215;SDS011;34005;48.844;10.098;2023-04-30T00:00:29;6.97;;;5.55;;
48215;SDS011;34005;48.844;10.098;2023-04-30T00:02:57;8.35;;;5.68;;
48215;SDS011;34005;48.844;10.098;2023-04-30T00:05:24;7.00;;;5.35;;
48215;SDS011;34005;48.844;10.098;2023-04-30T00:07:52;9.13;;;6.30;;
48215;SDS011;34005;48.844;10.098;2023-04-30T00:10:20;7.45;;;5.78;;
48215;SDS011;34005;48.844;10.098;2023-04-30T00:12:47;8.05;;;6.05;;
48215;SDS011;34005;48.844;10.098;2023-04-30T00:15:16;7.15;;;6.07;;
48215;SDS011;34005;48.844;10.098;2023-04-30T00:17:44;7.43;;;6.10;;
48215;SDS011;34005;48.844;10.098;2023-04-30T00:20:12;9.35;;;6.43;;
48215;SDS011;34005;48.844;10.098;2023-04-30T00:25:15;7.22;;;6.18;;
48215;SDS011;34005;48.844;10.098;2023-04-30T00:30:20;7.07;;;5.80;;
48215;SDS011;34005;48.844;10.098;2023-04-30T00:32:48;7.43;;;6.05;;
48215;SDS011;34005;48.844;10.098;2023-04-30T00:37:58;8.20;;;6.18;;
48215;SDS011;34005;48.844;10.098;2023-04-30T00:45:53;7.33;;;6.10;;
48215;SDS011;34005;48.844;10.098;2023-04-30T00:48:21;8.63;;;7.10;;
48215;SDS011;34005;48.844;10.098;2023-04-30T00:50:51;7.22;;;6.45;;
48215;SDS011;34005;48.844;10.098;2023-04-30T00:53:20;7.20;;;6.20;;
48215;SDS011;34005;48.844;10.098;2023-04-30T00:55:48;7.57;;;6.35;;
48215;SDS011;34005;48.844;10.098;2023-04-30T01:03:42;8.63;;;6.40;;
48215;SDS011;34005;48.844;10.098;2023-04-30T01:08:47;7.60;;;6.38;;
48215;SDS011;34005;48.844;10.098;2023-04-30T01:16:39;9.55;;;6.72;;
48215;SDS011;34005;48.844;10.098;2023-04-30T01:21:56;8.07;;;6.65;;
48215;SDS011;34005;48.844;10.098;2023-04-30T01:24:32;8.20;;;6.65;;
48215;SDS011;34005;48.844;10.098;2023-04-30T01:29:54;9.80;;;6.65;;
48215;SDS011;34005;48.844;10.098;2023-04-30T01:32:24;7.53;;;6.13;;
48215;SDS011;34005;48.844;10.098;2023-04-30T01:40:20;7.27;;;6.13;;
48215;SDS011;34005;48.844;10.098;2023-04-30T01:42:54;9.15;;;7.15;;
48215;SDS011;34005;48.844;10.098;2023-04-30T01:45:39;8.25;;;6.85;;
48215;SDS011;34005;48.844;10.098;2023-04-30T01:48:35;8.65;;;6.63;;
48215;SDS011;34005;48.844;10.098;2023-04-30T01:53:46;8.63;;;7.57;;
48215;SDS011;34005;48.844;10.098;2023-04-30T01:56:16;8.50;;;7.53;;
48215;SDS011;34005;48.844;10.098;2023-04-30T01:59:00;8.63;;;7.30;;
48215;SDS011;34005;48.844;10.098;2023-04-30T02:01:32;8.52;;;6.65;;
48215;SDS011;34005;48.844;10.098;2023-04-30T02:04:01;8.80;;;7.40;;
48215;SDS011;34005;48.844;10.098;2023-04-30T02:09:05;9.55;;;7.75;;
48215;SDS011;34005;48.844;10.098;2023-04-30T02:16:54;13.15;;;8.05;;
48215;SDS011;34005;48.844;10.098;2023-04-30T02:27:29;9.63;;;8.57;;
48215;SDS011;34005;48.844;10.098;2023-04-30T02:32:42;11.48;;;9.68;;
48215;SDS011;34005;48.844;10.098;2023-04-30T02:43:17;13.25;;;9.82;;
48215;SDS011;34005;48.844;10.098;2023-04-30T02:51:03;9.23;;;7.85;;
48215;SDS011;34005;48.844;10.098;2023-04-30T02:53:33;11.80;;;9.10;;
48215;SDS011;34005;48.844;10.098;2023-04-30T02:56:01;10.70;;;8.82;;
48215;SDS011;34005;48.844;10.098;2023-04-30T03:03:54;11.33;;;8.83;;
48215;SDS011;34005;48.844;10.098;2023-04-30T03:06:25;10.90;;;9.45;;
48215;SDS011;34005;48.844;10.098;2023-04-30T03:08:53;11.27;;;9.48;;
48215;SDS011;34005;48.844;10.098;2023-04-30T03:11:22;12.43;;;10.15;;
48215;SDS011;34005;48.844;10.098;2023-04-30T03:13:51;9.77;;;8.57;;
48215;SDS011;34005;48.844;10.098;2023-04-30T03:16:20;11.52;;;9.77;;
48215;SDS011;34005;48.844;10.098;2023-04-30T03:18:57;12.50;;;9.95;;
48215;SDS011;34005;48.844;10.098;2023-04-30T03:21:27;11.70;;;9.02;;
48215;SDS011;34005;48.844;10.098;2023-04-30T03:23:55;10.57;;;8.73;;
48215;SDS011;34005;48.844;10.098;2023-04-30T03:28:59;10.98;;;9.38;;
48215;SDS011;34005;48.844;10.098;2023-04-30T03:31:28;12.15;;;9.40;;
48215;SDS011;34005;48.844;10.098;2023-04-30T03:33:57;11.02;;;9.70;;
48215;SDS011;34005;48.844;10.098;2023-04-30T03:38:57;11.60;;;9.73;;
48215;SDS011;34005;48.844;10.098;2023-04-30T03:41:25;12.32;;;11.02;;
48215;SDS011;34005;48.844;10.098;2023-04-30T03:43:54;12.48;;;9.82;;
48215;SDS011;34005;48.844;10.098;2023-04-30T03:46:22;14.43;;;9.88;;
48215;SDS011;34005;48.844;10.098;2023-04-30T03:48:51;9.98;;;8.90;;
48215;SDS011;34005;48.844;10.098;2023-04-30T03:54:05;11.60;;;9.60;;
48215;SDS011;34005;48.844;10.098;2023-04-30T03:56:34;10.75;;;9.23;;
48215;SDS011;34005;48.844;10.098;2023-04-30T03:59:03;13.50;;;9.45;;
48215;SDS011;34005;48.844;10.098;2023-04-30T04:04:07;9.95;;;8.88;;
48215;SDS011;34005;48.844;10.098;2023-04-30T04:06:36;11.05;;;9.38;;
48215;SDS011;34005;48.844;10.098;2023-04-30T04:09:06;13.00;;;10.38;;
48215;SDS011;34005;48.844;10.098;2023-04-30T04:14:10;11.25;;;9.05;;
48215;SDS011;34005;48.844;10.098;2023-04-30T04:16:38;11.55;;;8.93;;
48215;SDS011;34005;48.844;10.098;2023-04-30T04:19:07;10.82;;;8.80;;
48215;SDS011;34005;48.844;10.098;2023-04-30T04:21:36;10.45;;;9.07;;
48215;SDS011;34005;48.844;10.098;2023-04-30T04:24:04;11.13;;;8.90;;
48215;SDS011;34005;48.844;10.098;2023-04-30T04:26:35;13.65;;;10.07;;
48215;SDS011;34005;48.844;10.098;2023-04-30T04:29:04;13.25;;;9.82;;
48215;SDS011;34005;48.844;10.098;2023-04-30T04:31:34;11.05;;;9.88;;
48215;SDS011;34005;48.844;10.098;2023-04-30T04:36:38;11.63;;;8.95;;
48215;SDS011;34005;48.844;10.098;2023-04-30T04:39:08;10.13;;;8.80;;
48215;SDS011;34005;48.844;10.098;2023-04-30T04:41:37;11.52;;;9.10;;
48215;SDS011;34005;48.844;10.098;2023-04-30T04:44:05;10.82;;;9.07;;
48215;SDS011;34005;48.844;10.098;2023-04-30T04:46:33;10.60;;;9.40;;
48215;SDS011;34005;48.844;10.098;2023-04-30T04:49:04;12.80;;;9.85;;
48215;SDS011;34005;48.844;10.098;2023-04-30T04:51:32;11.18;;;9.23;;
48215;SDS011;34005;48.844;10.098;2023-04-30T04:54:01;10.20;;;8.82;;
48215;SDS011;34005;48.844;10.098;2023-04-30T04:56:31;11.68;;;9.07;;
48215;SDS011;34005;48.844;10.098;2023-04-30T04:58:59;11.00;;;9.68;;
48215;SDS011;34005;48.844;10.098;2023-04-30T05:04:03;11.80;;;9.93;;
48215;SDS011;34005;48.844;10.098;2023-04-30T05:06:32;11.52;;;9.02;;
48215;SDS011;34005;48.844;10.098;2023-04-30T05:09:00;12.38;;;10.23;;
48215;SDS011;34005;48.844;10.098;2023-04-30T05:11:28;10.80;;;9.38;;
48215;SDS011;34005;48.844;10.098;2023-04-30T05:13:58;12.45;;;9.18;;
48215;SDS011;34005;48.844;10.098;2023-04-30T05:16:26;12.48;;;9.68;;
48215;SDS011;34005;48.844;10.098;2023-04-30T05:18:54;10.05;;;8.93;;
48215;SDS011;34005;48.844;10.098;2023-04-30T05:21:23;11.07;;;8.80;;
48215;SDS011;34005;48.844;10.098;2023-04-30T05:29:36;11.20;;;9.57;;
48215;SDS011;34005;48.844;10.098;2023-04-30T05:32:04;10.75;;;9.20;;
48215;SDS011;34005;48.844;10.098;2023-04-30T05:34:33;11.30;;;9.73;;
48215;SDS011;34005;48.844;10.098;2023-04-30T05:37:02;13.18;;;9.45;;
48215;SDS011;34005;48.844;10.098;2023-04-30T05:39:31;15.00;;;9.93;;
48215;SDS011;34005;48.844;10.098;2023-04-30T05:41:59;11.43;;;9.65;;
48215;SDS011;34005;48.844;10.098;2023-04-30T05:44:28;24.25;;;11.18;;
48215;SDS011;34005;48.844;10.098;2023-04-30T05:46:58;14.45;;;10.57;;
48215;SDS011;34005;48.844;10.098;2023-04-30T05:49:27;11.20;;;10.02;;
48215;SDS011;34005;48.844;10.098;2023-04-30T05:51:58;12.48;;;9.82;;
48215;SDS011;34005;48.844;10.098;2023-04-30T05:54:27;12.52;;;9.32;;
48215;SDS011;34005;48.844;10.098;2023-04-30T05:56:55;10.70;;;9.05;;
48215;SDS011;34005;48.844;10.098;2023-04-30T05:59:24;11.05;;;9.95;;
48215;SDS011;34005;48.844;10.098;2023-04-30T06:01:52;12.30;;;8.90;;
48215;SDS011;34005;48.844;10.098;2023-04-30T06:04:22;11.65;;;9.70;;
48215;SDS011;34005;48.844;10.098;2023-04-30T06:06:52;15.48;;;10.88;;
48215;SDS011;34005;48.844;10.098;2023-04-30T06:09:21;12.07;;;9.65;;
48215;SDS011;34005;48.844;10.098;2023-04-30T06:11:50;13.75;;;10.93;;
48215;SDS011;34005;48.844;10.098;2023-04-30T06:14:18;11.85;;;9.98;;
48215;SDS011;34005;48.844;10.098;2023-04-30T06:16:48;14.23;;;10.77;;
48215;SDS011;34005;48.844;10.098;2023-04-30T06:19:17;12.10;;;10.23;;
48215;SDS011;34005;48.844;10.098;2023-04-30T06:21:47;12.10;;;10.90;;
48215;SDS011;34005;48.844;10.098;2023-04-30T06:24:18;12.18;;;10.75;;
48215;SDS011;34005;48.844;10.098;2023-04-30T06:26:46;14.48;;;10.95;;
48215;SDS011;34005;48.844;10.098;2023-04-30T06:29:15;13.30;;;10.90;;
48215;SDS011;34005;48.844;10.098;2023-04-30T06:31:43;13.43;;;10.73;;
48215;SDS011;34005;48.844;10.098;2023-04-30T06:34:12;11.00;;;9.70;;
48215;SDS011;34005;48.844;10.098;2023-04-30T06:36:42;14.38;;;10.35;;
48215;SDS011;34005;48.844;10.098;2023-04-30T06:39:14;11.43;;;10.10;;
48215;SDS011;34005;48.844;10.098;2023-04-30T06:44:24;11.85;;;10.57;;
48215;SDS011;34005;48.844;10.098;2023-04-30T06:46:53;15.40;;;10.63;;
48215;SDS011;34005;48.844;10.098;2023-04-30T06:49:22;11.13;;;9.90;;
48215;SDS011;34005;48.844;10.098;2023-04-30T06:51:52;12.98;;;11.02;;
48215;SDS011;34005;48.844;10.098;2023-04-30T06:54:23;12.05;;;9.15;;
48215;SDS011;34005;48.844;10.098;2023-04-30T06:59:33;13.60;;;9.75;;
48215;SDS011;34005;48.844;10.098;2023-04-30T07:02:01;17.23;;;10.18;;
48215;SDS011;34005;48.844;10.098;2023-04-30T07:17:54;12.23;;;9.90;;
48215;SDS011;34005;48.844;10.098;2023-04-30T07:20:23;10.80;;;9.70;;
48215;SDS011;34005;48.844;10.098;2023-04-30T07:25:20;10.32;;;8.73;;
48215;SDS011;34005;48.844;10.098;2023-04-30T07:27:50;9.93;;;8.57;;
48215;SDS011;34005;48.844;10.098;2023-04-30T07:30:19;10.10;;;8.98;;
48215;SDS011;34005;48.844;10.098;2023-04-30T07:32:50;10.68;;;9.13;;
48215;SDS011;34005;48.844;10.098;2023-04-30T07:35:20;11.55;;;8.50;;
48215;SDS011;34005;48.844;10.098;2023-04-30T07:37:49;10.82;;;9.32;;
48215;SDS011;34005;48.844;10.098;2023-04-30T07:40:18;9.25;;;8.38;;
48215;SDS011;34005;48.844;10.098;2023-04-30T07:43:01;9.00;;;8.10;;
48215;SDS011;34005;48.844;10.098;2023-04-30T07:45:30;9.82;;;8.82;;
48215;SDS011;34005;48.844;10.098;2023-04-30T07:50:44;12.85;;;8.65;;
48215;SDS011;34005;48.844;10.098;2023-04-30T07:53:18;9.05;;;6.93;;
48215;SDS011;34005;48.844;10.098;2023-04-30T07:55:47;8.70;;;7.90;;
48215;SDS011;34005;48.844;10.098;2023-04-30T07:58:20;8.02;;;7.15;;
48215;SDS011;34005;48.844;10.098;2023-04-30T08:03:19;8.02;;;7.22;;
48215;SDS011;34005;48.844;10.098;2023-04-30T08:05:49;9.45;;;7.85;;
48215;SDS011;34005;48.844;10.098;2023-04-30T08:08:16;10.43;;;7.72;;
48215;SDS011;34005;48.844;10.098;2023-04-30T08:10:44;8.27;;;7.40;;
48215;SDS011;34005;48.844;10.098;2023-04-30T08:13:11;10.43;;;9.18;;
48215;SDS011;34005;48.844;10.098;2023-04-30T08:15:39;11.05;;;8.68;;
48215;SDS011;34005;48.844;10.098;2023-04-30T08:18:06;10.55;;;8.48;;
48215;SDS011;34005;48.844;10.098;2023-04-30T08:20:34;11.50;;;7.93;;
48215;SDS011;34005;48.844;10.098;2023-04-30T08:23:05;8.75;;;7.85;;
48215;SDS011;34005;48.844;10.098;2023-04-30T08:25:32;9.45;;;7.70;;
48215;SDS011;34005;48.844;10.098;2023-04-30T08:28:00;7.35;;;6.57;;
48215;SDS011;34005;48.844;10.098;2023-04-30T08:30:27;7.43;;;6.68;;
48215;SDS011;34005;48.844;10.098;2023-04-30T08:32:55;7.50;;;5.97;;
48215;SDS011;34005;48.844;10.098;2023-04-30T08:35:23;8.07;;;6.38;;
48215;SDS011;34005;48.844;10.098;2023-04-30T08:37:51;6.72;;;5.43;;
48215;SDS011;34005;48.844;10.098;2023-04-30T08:40:20;7.25;;;5.60;;
48215;SDS011;34005;48.844;10.098;2023-04-30T08:43:08;6.03;;;4.45;;
48215;SDS011;34005;48.844;10.098;2023-04-30T08:45:36;7.13;;;4.80;;
48215;SDS011;34005;48.844;10.098;2023-04-30T08:48:04;5.93;;;4.75;;
48215;SDS011;34005;48.844;10.098;2023-04-30T08:50:37;5.90;;;4.45;;
48215;SDS011;34005;48.844;10.098;2023-04-30T08:53:05;7.47;;;6.15;;
48215;SDS011;34005;48.844;10.098;2023-04-30T08:55:35;7.65;;;6.25;;
48215;SDS011;34005;48.844;10.098;2023-04-30T08:58:07;5.95;;;5.30;;
48215;SDS011;34005;48.844;10.098;2023-04-30T09:00:35;5.22;;;4.72;;
48215;SDS011;34005;48.844;10.098;2023-04-30T09:03:04;3.95;;;3.63;;
48215;SDS011;34005;48.844;10.098;2023-04-30T09:05:33;4.82;;;3.58;;
48215;SDS011;34005;48.844;10.098;2023-04-30T09:08:03;5.32;;;3.25;;
48215;SDS011;34005;48.844;10.098;2023-04-30T09:10:31;3.53;;;3.03;;
48215;SDS011;34005;48.844;10.098;2023-04-30T09:13:00;4.70;;;3.13;;
48215;SDS011;34005;48.844;10.098;2023-04-30T09:15:29;4.13;;;3.35;;
48215;SDS011;34005;48.844;10.098;2023-04-30T09:18:08;4.55;;;3.65;;
48215;SDS011;34005;48.844;10.098;2023-04-30T09:20:38;7.10;;;4.93;;
48215;SDS011;34005;48.844;10.098;2023-04-30T09:23:20;5.00;;;3.92;;
48215;SDS011;34005;48.844;10.098;2023-04-30T09:25:48;5.20;;;4.68;;
48215;SDS011;34005;48.844;10.098;2023-04-30T09:28:18;3.80;;;2.85;;
48215;SDS011;34005;48.844;10.098;2023-04-30T09:30:49;4.30;;;3.35;;
48215;SDS011;34005;48.844;10.098;2023-04-30T09:33:18;4.43;;;3.20;;
48215;SDS011;34005;48.844;10.098;2023-04-30T09:35:45;4.93;;;3.40;;
48215;SDS011;34005;48.844;10.098;2023-04-30T09:38:27;4.20;;;3.80;;
48215;SDS011;34005;48.844;10.098;2023-04-30T09:40:56;5.38;;;4.03;;
48215;SDS011;34005;48.844;10.098;2023-04-30T09:43:26;4.57;;;3.50;;
48215;SDS011;34005;48.844;10.098;2023-04-30T09:45:54;4.63;;;4.13;;
48215;SDS011;34005;48.844;10.098;2023-04-30T09:48:24;10.55;;;4.07;;
48215;SDS011;34005;48.844;10.098;2023-04-30T09:50:53;5.30;;;4.00;;
48215;SDS011;34005;48.844;10.098;2023-04-30T09:53:21;5.18;;;4.65;;
48215;SDS011;34005;48.844;10.098;2023-04-30T09:55:49;7.38;;;4.75;;
48215;SDS011;34005;48.844;10.098;2023-04-30T09:58:18;7.10;;;5.25;;
48215;SDS011;34005;48.844;10.098;2023-04-30T10:00:47;6.63;;;4.57;;
48215;SDS011;34005;48.844;10.098;2023-04-30T10:03:19;4.70;;;4.20;;
48215;SDS011;34005;48.844;10.098;2023-04-30T10:05:49;5.75;;;4.80;;
48215;SDS011;34005;48.844;10.098;2023-04-30T10:08:23;5.25;;;4.75;;
48215;SDS011;34005;48.844;10.098;2023-04-30T10:10:55;6.15;;;4.68;;
48215;SDS011;34005;48.844;10.098;2023-04-30T10:15:58;7.10;;;5.10;;
48215;SDS011;34005;48.844;10.098;2023-04-30T10:18:32;5.57;;;4.97;;
48215;SDS011;34005;48.844;10.098;2023-04-30T10:21:01;6.65;;;5.50;;
48215;SDS011;34005;48.844;10.098;2023-04-30T10:23:35;7.40;;;5.82;;
48215;SDS011;34005;48.844;10.098;2023-04-30T10:26:03;6.88;;;5.50;;
48215;SDS011;34005;48.844;10.098;2023-04-30T10:28:31;5.30;;;4.80;;
48215;SDS011;34005;48.844;10.098;2023-04-30T10:31:00;5.78;;;5.18;;
48215;SDS011;34005;48.844;10.098;2023-04-30T10:33:31;7.85;;;5.72;;
48215;SDS011;34005;48.844;10.098;2023-04-30T10:36:04;6.47;;;5.15;;
48215;SDS011;34005;48.844;10.098;2023-04-30T10:38:34;8.68;;;6.25;;
48215;SDS011;34005;48.844;10.098;2023-04-30T10:41:05;5.72;;;5.07;;
48215;SDS011;34005;48.844;10.098;2023-04-30T10:43:35;6.90;;;4.75;;
48215;SDS011;34005;48.844;10.098;2023-04-30T10:46:04;4.80;;;4.40;;
48215;SDS011;34005;48.844;10.098;2023-04-30T10:48:32;5.78;;;5.15;;
48215;SDS011;34005;48.844;10.098;2023-04-30T10:51:01;6.72;;;5.47;;
48215;SDS011;34005;48.844;10.098;2023-04-30T10:53:29;9.02;;;4.05;;
48215;SDS011;34005;48.844;10.098;2023-04-30T10:55:58;7.18;;;4.28;;
48215;SDS011;34005;48.844;10.098;2023-04-30T10:58:32;4.78;;;4.30;;
48215;SDS011;34005;48.844;10.098;2023-04-30T11:01:01;5.72;;;4.53;;
48215;SDS011;34005;48.844;10.098;2023-04-30T11:03:34;4.18;;;3.80;;
48215;SDS011;34005;48.844;10.098;2023-04-30T11:06:09;5.20;;;4.20;;
48215;SDS011;34005;48.844;10.098;2023-04-30T11:08:39;5.85;;;4.13;;
48215;SDS011;34005;48.844;10.098;2023-04-30T11:11:10;4.72;;;4.20;;
48215;SDS011;34005;48.844;10.098;2023-04-30T11:13:44;4.57;;;4.18;;
48215;SDS011;34005;48.844;10.098;2023-04-30T11:16:15;6.13;;;3.85;;
48215;SDS011;34005;48.844;10.098;2023-04-30T11:18:45;5.68;;;3.80;;
48215;SDS011;34005;48.844;10.098;2023-04-30T11:21:13;5.72;;;3.55;;
48215;SDS011;34005;48.844;10.098;2023-04-30T11:23:41;4.72;;;4.25;;
48215;SDS011;34005;48.844;10.098;2023-04-30T11:26:09;5.25;;;3.65;;
48215;SDS011;34005;48.844;10.098;2023-04-30T11:28:37;5.10;;;3.85;;
48215;SDS011;34005;48.844;10.098;2023-04-30T11:31:04;3.58;;;3.17;;
48215;SDS011;34005;48.844;10.098;2023-04-30T11:33:33;4.72;;;3.55;;
48215;SDS011;34005;48.844;10.098;2023-04-30T11:36:01;4.03;;;3.60;;
48215;SDS011;34005;48.844;10.098;2023-04-30T11:38:29;4.00;;;3.22;;
48215;SDS011;34005;48.844;10.098;2023-04-30T11:41:00;7.13;;;3.83;;
48215;SDS011;34005;48.844;10.098;2023-04-30T11:43:28;5.82;;;3.80;;
48215;SDS011;34005;48.844;10.098;2023-04-30T11:46:04;5.43;;;3.67;;
48215;SDS011;34005;48.844;10.098;2023-04-30T11:48:35;4.65;;;4.15;;
48215;SDS011;34005;48.844;10.098;2023-04-30T11:51:04;4.18;;;3.15;;
48215;SDS011;34005;48.844;10.098;2023-04-30T11:53:40;4.35;;;3.28;;
48215;SDS011;34005;48.844;10.098;2023-04-30T11:56:08;4.47;;;3.33;;
48215;SDS011;34005;48.844;10.098;2023-04-30T11:58:36;3.28;;;2.97;;
48215;SDS011;34005;48.844;10.098;2023-04-30T12:01:05;3.92;;;2.50;;
48215;SDS011;34005;48.844;10.098;2023-04-30T12:03:40;3.33;;;2.78;;
48215;SDS011;34005;48.844;10.098;2023-04-30T12:06:09;3.65;;;2.65;;
48215;SDS011;34005;48.844;10.098;2023-04-30T12:08:39;3.55;;;3.10;;
48215;SDS011;34005;48.844;10.098;2023-04-30T12:11:18;3.83;;;3.00;;
48215;SDS011;34005;48.844;10.098;2023-04-30T12:13:50;3.95;;;3.08;;
48215;SDS011;34005;48.844;10.098;2023-04-30T12:16:22;3.47;;;3.08;;
48215;SDS011;34005;48.844;10.098;2023-04-30T12:18:52;3.78;;;3.47;;
48215;SDS011;34005;48.844;10.098;2023-04-30T12:21:20;4.95;;;3.72;;
48215;SDS011;34005;48.844;10.098;2023-04-30T12:23:48;3.67;;;3.38;;
48215;SDS011;34005;48.844;10.098;2023-04-30T12:26:16;4.07;;;3.67;;
48215;SDS011;34005;48.844;10.098;2023-04-30T12:28:45;3.40;;;3.00;;
48215;SDS011;34005;48.844;10.098;2023-04-30T12:31:13;6.78;;;3.03;;
48215;SDS011;34005;48.844;10.098;2023-04-30T12:33:43;5.93;;;3.50;;
48215;SDS011;34005;48.844;10.098;2023-04-30T12:36:21;4.38;;;3.25;;
48215;SDS011;34005;48.844;10.098;2023-04-30T12:39:00;4.55;;;3.05;;
48215;SDS011;34005;48.844;10.098;2023-04-30T12:41:28;3.55;;;3.25;;
48215;SDS011;34005;48.844;10.098;2023-04-30T12:46:46;3.42;;;3.10;;
48215;SDS011;34005;48.844;10.098;2023-04-30T12:49:22;4.65;;;3.00;;
48215;SDS011;34005;48.844;10.098;2023-04-30T12:51:51;4.78;;;3.13;;
48215;SDS011;34005;48.844;10.098;2023-04-30T12:54:25;4.70;;;2.60;;
48215;SDS011;34005;48.844;10.098;2023-04-30T12:56:57;3.10;;;2.80;;
48215;SDS011;34005;48.844;10.098;2023-04-30T12:59:26;2.72;;;2.50;;
48215;SDS011;34005;48.844;10.098;2023-04-30T13:01:54;3.10;;;2.90;;
48215;SDS011;34005;48.844;10.098;2023-04-30T13:04:23;3.58;;;3.10;;
48215;SDS011;34005;48.844;10.098;2023-04-30T13:06:50;3.88;;;2.67;;
48215;SDS011;34005;48.844;10.098;2023-04-30T13:09:18;3.20;;;2.90;;
48215;SDS011;34005;48.844;10.098;2023-04-30T13:11:47;2.72;;;2.38;;
48215;SDS011;34005;48.844;10.098;2023-04-30T13:14:15;4.43;;;2.67;;
48215;SDS011;34005;48.844;10.098;2023-04-30T13:16:43;4.65;;;2.85;;
48215;SDS011;34005;48.844;10.098;2023-04-30T13:19:11;2.60;;;2.40;;
48215;SDS011;34005;48.844;10.098;2023-04-30T13:21:40;3.13;;;2.83;;
48215;SDS011;34005;48.844;10.098;2023-04-30T13:24:07;2.97;;;2.67;;
48215;SDS011;34005;48.844;10.098;2023-04-30T13:26:35;3.55;;;2.80;;
48215;SDS011;34005;48.844;10.098;2023-04-30T13:29:02;3.78;;;2.38;;
48215;SDS011;34005;48.844;10.098;2023-04-30T13:31:30;3.83;;;2.60;;
48215;SDS011;34005;48.844;10.098;2023-04-30T13:33:58;6.30;;;4.82;;
48215;SDS011;34005;48.844;10.098;2023-04-30T13:36:26;3.80;;;3.38;;
48215;SDS011;34005;48.844;10.098;2023-04-30T13:38:55;3.60;;;3.30;;
48215;SDS011;34005;48.844;10.098;2023-04-30T13:41:23;4.10;;;3.80;;
48215;SDS011;34005;48.844;10.098;2023-04-30T13:43:52;4.22;;;3.15;;
48215;SDS011;34005;48.844;10.098;2023-04-30T13:46:19;2.95;;;2.75;;
48215;SDS011;34005;48.844;10.098;2023-04-30T13:48:47;3.53;;;3.13;;
48215;SDS011;34005;48.844;10.098;2023-04-30T13:51:16;4.18;;;3.10;;
48215;SDS011;34005;48.844;10.098;2023-04-30T13:53:44;3.40;;;3.00;;
48215;SDS011;34005;48.844;10.098;2023-04-30T13:56:13;4.43;;;3.10;;
48215;SDS011;34005;48.844;10.098;2023-04-30T13:58:41;4.65;;;3.10;;
48215;SDS011;34005;48.844;10.098;2023-04-30T14:01:09;2.92;;;2.67;;
48215;SDS011;34005;48.844;10.098;2023-04-30T14:03:37;5.43;;;3.25;;
48215;SDS011;34005;48.844;10.098;2023-04-30T14:06:05;3.05;;;2.63;;
48215;SDS011;34005;48.844;10.098;2023-04-30T14:08:32;4.05;;;3.35;;
48215;SDS011;34005;48.844;10.098;2023-04-30T14:11:00;6.20;;;3.90;;
48215;SDS011;34005;48.844;10.098;2023-04-30T14:13:29;5.00;;;4.50;;
48215;SDS011;34005;48.844;10.098;2023-04-30T14:15:56;6.03;;;3.30;;
48215;SDS011;34005;48.844;10.098;2023-04-30T14:18:24;4.00;;;2.83;;
48215;SDS011;34005;48.844;10.098;2023-04-30T14:20:51;4.78;;;3.50;;
48215;SDS011;34005;48.844;10.098;2023-04-30T14:23:19;5.13;;;3.60;;
48215;SDS011;34005;48.844;10.098;2023-04-30T14:25:47;3.15;;;2.90;;
48215;SDS011;34005;48.844;10.098;2023-04-30T14:28:14;2.88;;;2.67;;
48215;SDS011;34005;48.844;10.098;2023-04-30T14:30:43;3.50;;;2.90;;
48215;SDS011;34005;48.844;10.098;2023-04-30T14:33:11;4.50;;;3.28;;
48215;SDS011;34005;48.844;10.098;2023-04-30T14:35:39;3.95;;;3.20;;
48215;SDS011;34005;48.844;10.098;2023-04-30T14:38:06;3.35;;;3.05;;
48215;SDS011;34005;48.844;10.098;2023-04-30T14:40:34;2.65;;;2.45;;
48215;SDS011;34005;48.844;10.098;2023-04-30T14:43:01;4.88;;;3.20;;
48215;SDS011;34005;48.844;10.098;2023-04-30T14:45:29;3.13;;;2.90;;
48215;SDS011;34005;48.844;10.098;2023-04-30T14:48:00;3.20;;;2.80;;
48215;SDS011;34005;48.844;10.098;2023-04-30T14:50:30;3.05;;;2.30;;
48215;SDS011;34005;48.844;10.098;2023-04-30T14:52:58;2.47;;;2.28;;
48215;SDS011;34005;48.844;10.098;2023-04-30T14:55:26;4.70;;;3.05;;
48215;SDS011;34005;48.844;10.098;2023-04-30T14:57:54;5.65;;;3.42;;
48215;SDS011;34005;48.844;10.098;2023-04-30T15:00:21;3.20;;;2.90;;
48215;SDS011;34005;48.844;10.098;2023-04-30T15:02:49;2.80;;;2.60;;
48215;SDS011;34005;48.844;10.098;2023-04-30T15:05:18;4.28;;;3.53;;
48215;SDS011;34005;48.844;10.098;2023-04-30T15:07:46;3.63;;;2.63;;
48215;SDS011;34005;48.844;10.098;2023-04-30T15:10:13;4.30;;;2.80;;
48215;SDS011;34005;48.844;10.098;2023-04-30T15:12:41;3.45;;;3.00;;
48215;SDS011;34005;48.844;10.098;2023-04-30T15:15:09;2.75;;;2.55;;
48215;SDS011;34005;48.844;10.098;2023-04-30T15:17:38;5.22;;;3.40;;
48215;SDS011;34005;48.844;10.098;2023-04-30T15:20:06;3.75;;;3.13;;
48215;SDS011;34005;48.844;10.098;2023-04-30T15:22:36;2.58;;;2.38;;
48215;SDS011;34005;48.844;10.098;2023-04-30T15:25:03;2.83;;;2.53;;
48215;SDS011;34005;48.844;10.098;2023-04-30T15:27:32;3.08;;;2.88;;
48215;SDS011;34005;48.844;10.098;2023-04-30T15:30:00;3.17;;;2.28;;
48215;SDS011;34005;48.844;10.098;2023-04-30T15:32:27;2.60;;;2.40;;
48215;SDS011;34005;48.844;10.098;2023-04-30T15:34:55;2.78;;;2.50;;
48215;SDS011;34005;48.844;10.098;2023-04-30T15:37:22;3.03;;;2.72;;
48215;SDS011;34005;48.844;10.098;2023-04-30T15:39:52;3.33;;;2.28;;
48215;SDS011;34005;48.844;10.098;2023-04-30T15:42:19;2.40;;;2.20;;
48215;SDS011;34005;48.844;10.098;2023-04-30T15:44:47;2.40;;;2.20;;
48215;SDS011;34005;48.844;10.098;2023-04-30T15:47:15;8.88;;;4.10;;
48215;SDS011;34005;48.844;10.098;2023-04-30T15:49:42;3.42;;;2.80;;
48215;SDS011;34005;48.844;10.098;2023-04-30T15:52:10;2.28;;;2.08;;
48215;SDS011;34005;48.844;10.098;2023-04-30T15:54:37;2.35;;;1.98;;
48215;SDS011;34005;48.844;10.098;2023-04-30T15:57:07;3.30;;;2.28;;
48215;SDS011;34005;48.844;10.098;2023-04-30T15:59:34;3.83;;;2.65;;
48215;SDS011;34005;48.844;10.098;2023-04-30T16:02:02;3.08;;;2.70;;
48215;SDS011;34005;48.844;10.098;2023-04-30T16:04:30;3.00;;;2.45;;
48215;SDS011;34005;48.844;10.098;2023-04-30T16:06:58;4.18;;;2.45;;
48215;SDS011;34005;48.844;10.098;2023-04-30T16:09:26;2.45;;;2.25;;
48215;SDS011;34005;48.844;10.098;2023-04-30T16:11:54;2.50;;;2.25;;
48215;SDS011;34005;48.844;10.098;2023-04-30T16:14:23;2.35;;;2.15;;
48215;SDS011;34005;48.844;10.098;2023-04-30T16:16:51;2.60;;;2.40;;
48215;SDS011;34005;48.844;10.098;2023-04-30T16:19:19;3.60;;;2.30;;
48215;SDS011;34005;48.844;10.098;2023-04-30T16:21:46;2.63;;;2.42;;
48215;SDS011;34005;48.844;10.098;2023-04-30T16:24:14;2.72;;;2.28;;
48215;SDS011;34005;48.844;10.098;2023-04-30T16:26:42;3.22;;;2.40;;
48215;SDS011;34005;48.844;10.098;2023-04-30T16:29:09;3.63;;;2.20;;
48215;SDS011;34005;48.844;10.098;2023-04-30T16:31:38;2.70;;;2.50;;
48215;SDS011;34005;48.844;10.098;2023-04-30T16:34:06;6.10;;;3.05;;
48215;SDS011;34005;48.844;10.098;2023-04-30T16:36:37;3.13;;;2.83;;
48215;SDS011;34005;48.844;10.098;2023-04-30T16:39:04;3.33;;;2.58;;
48215;SDS011;34005;48.844;10.098;2023-04-30T16:41:32;2.95;;;2.65;;
48215;SDS011;34005;48.844;10.098;2023-04-30T16:44:00;3.20;;;2.90;;
48215;SDS011;34005;48.844;10.098;2023-04-30T16:46:28;6.13;;;3.78;;
48215;SDS011;34005;48.844;10.098;2023-04-30T16:48:57;5.88;;;5.10;;
48215;SDS011;34005;48.844;10.098;2023-04-30T16:51:25;5.43;;;3.60;;
48215;SDS011;34005;48.844;10.098;2023-04-30T16:53:52;6.72;;;4.78;;
48215;SDS011;34005;48.844;10.098;2023-04-30T16:56:20;4.13;;;3.30;;